sensor_id;sensor_type;location;lat;lon;timestamp;temperature;humidity
75489;HTU21D;64069;46.396;48.102;2023-07-02T00:00:21;18.83;78.98
75489;HTU21D;64069;46.396;48.102;2023-07-02T00:02:54;18.79;79.11
75489;HTU21D;64069;46.396;48.102;2023-07-02T00:05:26;18.78;79.17
75489;HTU21D;64069;46.396;48.102;2023-07-02T00:07:52;18.77;79.33
75489;HTU21D;64069;46.396;48.102;2023-07-02T00:10:24;18.76;79.49
75489;HTU21D;64069;46.396;48.102;2023-07-02T00:12:56;18.74;79.62
75489;HTU21D;64069;46.396;48.102;2023-07-02T00:15:22;18.76;79.62
75489;HTU21D;64069;46.396;48.102;2023-07-02T00:17:54;18.76;79.71
75489;HTU21D;64069;46.396;48.102;2023-07-02T00:20:33;18.74;79.87
75489;HTU21D;64069;46.396;48.102;2023-07-02T00:23:09;18.73;79.95
75489;HTU21D;64069;46.396;48.102;2023-07-02T00:25:38;18.71;80.17
75489;HTU21D;64069;46.396;48.102;2023-07-02T00:28:11;18.70;80.09
75489;HTU21D;64069;46.396;48.102;2023-07-02T00:30:50;18.70;80.44
75489;HTU21D;64069;46.396;48.102;2023-07-02T00:33:22;18.68;80.44
75489;HTU21D;64069;46.396;48.102;2023-07-02T00:35:49;18.66;80.54
75489;HTU21D;64069;46.396;48.102;2023-07-02T00:38:22;18.66;80.75
75489;HTU21D;64069;46.396;48.102;2023-07-02T00:40:55;18.65;80.76
75489;HTU21D;64069;46.396;48.102;2023-07-02T00:43:21;18.64;80.84
75489;HTU21D;64069;46.396;48.102;2023-07-02T00:45:53;18.63;80.94
75489;HTU21D;64069;46.396;48.102;2023-07-02T00:48:25;18.62;81.02
75489;HTU21D;64069;46.396;48.102;2023-07-02T00:50:58;18.59;81.10
75489;HTU21D;64069;46.396;48.102;2023-07-02T00:53:30;18.57;81.20
75489;HTU21D;64069;46.396;48.102;2023-07-02T00:55:58;18.57;81.41
75489;HTU21D;64069;46.396;48.102;2023-07-02T00:58:30;18.57;81.50
75489;HTU21D;64069;46.396;48.102;2023-07-02T01:01:03;18.58;81.68
75489;HTU21D;64069;46.396;48.102;2023-07-02T01:03:29;18.56;81.72
75489;HTU21D;64069;46.396;48.102;2023-07-02T01:06:04;18.55;81.72
75489;HTU21D;64069;46.396;48.102;2023-07-02T01:08:36;18.55;81.73
75489;HTU21D;64069;46.396;48.102;2023-07-02T01:11:03;18.57;81.91
75489;HTU21D;64069;46.396;48.102;2023-07-02T01:13:37;18.59;81.87
75489;HTU21D;64069;46.396;48.102;2023-07-02T01:16:10;18.62;81.81
75489;HTU21D;64069;46.396;48.102;2023-07-02T01:18:43;18.65;81.83
75489;HTU21D;64069;46.396;48.102;2023-07-02T01:21:09;18.68;81.84
75489;HTU21D;64069;46.396;48.102;2023-07-02T01:23:41;18.69;81.81
75489;HTU21D;64069;46.396;48.102;2023-07-02T01:26:13;18.74;81.80
75489;HTU21D;64069;46.396;48.102;2023-07-02T01:28:41;18.80;81.79
75489;HTU21D;64069;46.396;48.102;2023-07-02T01:31:13;19.01;81.53
75489;HTU21D;64069;46.396;48.102;2023-07-02T01:33:57;19.41;80.48
75489;HTU21D;64069;46.396;48.102;2023-07-02T01:36:23;19.67;79.69
75489;HTU21D;64069;46.396;48.102;2023-07-02T01:38:55;19.73;79.56
75489;HTU21D;64069;46.396;48.102;2023-07-02T01:41:27;19.85;79.45
75489;HTU21D;64069;46.396;48.102;2023-07-02T01:43:53;20.02;79.21
75489;HTU21D;64069;46.396;48.102;2023-07-02T01:46:26;20.26;78.82
75489;HTU21D;64069;46.396;48.102;2023-07-02T01:48:58;20.45;78.40
75489;HTU21D;64069;46.396;48.102;2023-07-02T01:51:24;20.62;78.11
75489;HTU21D;64069;46.396;48.102;2023-07-02T01:53:56;20.79;77.78
75489;HTU21D;64069;46.396;48.102;2023-07-02T01:56:22;20.96;77.37
75489;HTU21D;64069;46.396;48.102;2023-07-02T01:58:54;21.14;76.96
75489;HTU21D;64069;46.396;48.102;2023-07-02T02:01:26;21.29;76.60
75489;HTU21D;64069;46.396;48.102;2023-07-02T02:03:53;21.45;76.19
75489;HTU21D;64069;46.396;48.102;2023-07-02T02:06:25;21.63;75.73
75489;HTU21D;64069;46.396;48.102;2023-07-02T02:08:57;21.85;75.18
75489;HTU21D;64069;46.396;48.102;2023-07-02T02:11:23;22.03;74.74
75489;HTU21D;64069;46.396;48.102;2023-07-02T02:13:56;22.16;74.26
75489;HTU21D;64069;46.396;48.102;2023-07-02T02:16:29;22.24;74.05
75489;HTU21D;64069;46.396;48.102;2023-07-02T02:18:55;22.38;73.67
75489;HTU21D;64069;46.396;48.102;2023-07-02T02:21:27;22.51;73.26
75489;HTU21D;64069;46.396;48.102;2023-07-02T02:23:59;22.63;72.93
75489;HTU21D;64069;46.396;48.102;2023-07-02T02:26:26;22.71;72.57
75489;HTU21D;64069;46.396;48.102;2023-07-02T02:28:58;22.79;72.24
75489;HTU21D;64069;46.396;48.102;2023-07-02T02:31:37;22.88;71.95
75489;HTU21D;64069;46.396;48.102;2023-07-02T02:34:10;23.06;71.58
75489;HTU21D;64069;46.396;48.102;2023-07-02T02:36:36;23.21;71.15
75489;HTU21D;64069;46.396;48.102;2023-07-02T02:39:08;23.38;70.78
75489;HTU21D;64069;46.396;48.102;2023-07-02T02:41:41;23.50;70.26
75489;HTU21D;64069;46.396;48.102;2023-07-02T02:44:07;23.56;70.08
75489;HTU21D;64069;46.396;48.102;2023-07-02T02:46:39;23.65;69.87
75489;HTU21D;64069;46.396;48.102;2023-07-02T02:49:12;23.83;69.33
75489;HTU21D;64069;46.396;48.102;2023-07-02T02:51:38;23.98;68.97
75489;HTU21D;64069;46.396;48.102;2023-07-02T02:54:12;24.12;68.61
75489;HTU21D;64069;46.396;48.102;2023-07-02T02:56:44;24.38;68.01
75489;HTU21D;64069;46.396;48.102;2023-07-02T02:59:10;24.55;67.49
75489;HTU21D;64069;46.396;48.102;2023-07-02T03:01:42;24.66;67.09
75489;HTU21D;64069;46.396;48.102;2023-07-02T03:04:14;24.74;66.68
75489;HTU21D;64069;46.396;48.102;2023-07-02T03:06:40;24.90;66.28
75489;HTU21D;64069;46.396;48.102;2023-07-02T03:09:12;25.07;65.78
75489;HTU21D;64069;46.396;48.102;2023-07-02T03:11:45;25.36;65.15
75489;HTU21D;64069;46.396;48.102;2023-07-02T03:14:11;25.58;64.41
75489;HTU21D;64069;46.396;48.102;2023-07-02T03:16:43;25.72;64.18
75489;HTU21D;64069;46.396;48.102;2023-07-02T03:19:18;25.94;63.51
75489;HTU21D;64069;46.396;48.102;2023-07-02T03:21:44;26.12;63.02
75489;HTU21D;64069;46.396;48.102;2023-07-02T03:24:17;26.36;62.41
75489;HTU21D;64069;46.396;48.102;2023-07-02T03:26:49;26.67;61.52
75489;HTU21D;64069;46.396;48.102;2023-07-02T03:29:15;26.83;60.29
75489;HTU21D;64069;46.396;48.102;2023-07-02T03:31:48;26.97;59.66
75489;HTU21D;64069;46.396;48.102;2023-07-02T03:34:27;27.06;58.96
75489;HTU21D;64069;46.396;48.102;2023-07-02T03:36:53;27.12;58.41
75489;HTU21D;64069;46.396;48.102;2023-07-02T03:39:25;27.28;58.13
75489;HTU21D;64069;46.396;48.102;2023-07-02T03:41:57;27.66;57.24
75489;HTU21D;64069;46.396;48.102;2023-07-02T03:44:23;27.87;56.62
75489;HTU21D;64069;46.396;48.102;2023-07-02T03:46:55;28.09;56.02
75489;HTU21D;64069;46.396;48.102;2023-07-02T03:49:27;28.10;55.55
75489;HTU21D;64069;46.396;48.102;2023-07-02T03:51:54;28.20;55.03
75489;HTU21D;64069;46.396;48.102;2023-07-02T03:54:26;28.28;54.71
75489;HTU21D;64069;46.396;48.102;2023-07-02T03:56:58;28.49;54.34
75489;HTU21D;64069;46.396;48.102;2023-07-02T03:59:30;28.71;53.54
75489;HTU21D;64069;46.396;48.102;2023-07-02T04:01:56;28.75;53.39
75489;HTU21D;64069;46.396;48.102;2023-07-02T04:04:28;28.92;52.94
75489;HTU21D;64069;46.396;48.102;2023-07-02T04:06:54;29.03;52.37
75489;HTU21D;64069;46.396;48.102;2023-07-02T04:09:26;29.05;52.14
75489;HTU21D;64069;46.396;48.102;2023-07-02T04:12:00;29.18;51.80
75489;HTU21D;64069;46.396;48.102;2023-07-02T04:14:26;29.43;51.24
75489;HTU21D;64069;46.396;48.102;2023-07-02T04:16:58;29.52;50.43
75489;HTU21D;64069;46.396;48.102;2023-07-02T04:19:30;29.56;50.39
75489;HTU21D;64069;46.396;48.102;2023-07-02T04:21:56;29.58;49.97
75489;HTU21D;64069;46.396;48.102;2023-07-02T04:24:28;29.73;49.50
75489;HTU21D;64069;46.396;48.102;2023-07-02T04:27:00;29.79;49.05
75489;HTU21D;64069;46.396;48.102;2023-07-02T04:29:26;29.66;49.08
75489;HTU21D;64069;46.396;48.102;2023-07-02T04:32:05;29.77;48.74
75489;HTU21D;64069;46.396;48.102;2023-07-02T04:34:38;29.90;48.57
75489;HTU21D;64069;46.396;48.102;2023-07-02T04:37:05;29.98;48.21
75489;HTU21D;64069;46.396;48.102;2023-07-02T04:39:37;30.02;47.95
75489;HTU21D;64069;46.396;48.102;2023-07-02T04:42:09;29.97;47.73
75489;HTU21D;64069;46.396;48.102;2023-07-02T04:44:35;29.96;47.57
75489;HTU21D;64069;46.396;48.102;2023-07-02T04:47:07;30.03;47.20
75489;HTU21D;64069;46.396;48.102;2023-07-02T04:49:39;30.11;46.76
75489;HTU21D;64069;46.396;48.102;2023-07-02T04:52:05;30.07;46.38
75489;HTU21D;64069;46.396;48.102;2023-07-02T04:54:38;30.10;46.46
75489;HTU21D;64069;46.396;48.102;2023-07-02T04:57:10;30.37;45.84
75489;HTU21D;64069;46.396;48.102;2023-07-02T04:59:37;30.57;45.48
75489;HTU21D;64069;46.396;48.102;2023-07-02T05:02:10;30.50;45.07
75489;HTU21D;64069;46.396;48.102;2023-07-02T05:04:42;30.52;44.94
75489;HTU21D;64069;46.396;48.102;2023-07-02T05:07:08;30.51;44.79
75489;HTU21D;64069;46.396;48.102;2023-07-02T05:09:40;30.67;44.45
75489;HTU21D;64069;46.396;48.102;2023-07-02T05:12:12;30.76;44.16
75489;HTU21D;64069;46.396;48.102;2023-07-02T05:14:38;30.77;43.86
75489;HTU21D;64069;46.396;48.102;2023-07-02T05:17:11;30.83;43.64
75489;HTU21D;64069;46.396;48.102;2023-07-02T05:19:37;30.87;43.21
75489;HTU21D;64069;46.396;48.102;2023-07-02T05:22:09;30.82;43.09
75489;HTU21D;64069;46.396;48.102;2023-07-02T05:24:42;30.72;42.77
75489;HTU21D;64069;46.396;48.102;2023-07-02T05:27:09;30.47;42.74
75489;HTU21D;64069;46.396;48.102;2023-07-02T05:29:42;30.45;42.93
75489;HTU21D;64069;46.396;48.102;2023-07-02T05:32:28;30.57;42.45
75489;HTU21D;64069;46.396;48.102;2023-07-02T05:35:00;30.55;42.10
75489;HTU21D;64069;46.396;48.102;2023-07-02T05:37:26;30.63;42.10
75489;HTU21D;64069;46.396;48.102;2023-07-02T05:39:58;30.67;41.98
75489;HTU21D;64069;46.396;48.102;2023-07-02T05:42:30;30.53;41.63
75489;HTU21D;64069;46.396;48.102;2023-07-02T05:44:56;30.41;41.59
75489;HTU21D;64069;46.396;48.102;2023-07-02T05:47:28;30.36;41.75
75489;HTU21D;64069;46.396;48.102;2023-07-02T05:50:00;30.46;41.62
75489;HTU21D;64069;46.396;48.102;2023-07-02T05:52:32;30.74;41.36
75489;HTU21D;64069;46.396;48.102;2023-07-02T05:55:05;30.96;41.13
75489;HTU21D;64069;46.396;48.102;2023-07-02T05:57:46;31.13;40.53
75489;HTU21D;64069;46.396;48.102;2023-07-02T06:00:13;31.31;40.01
75489;HTU21D;64069;46.396;48.102;2023-07-02T06:02:46;31.43;39.46
75489;HTU21D;64069;46.396;48.102;2023-07-02T06:05:19;31.44;39.43
75489;HTU21D;64069;46.396;48.102;2023-07-02T06:07:45;31.46;39.62
75489;HTU21D;64069;46.396;48.102;2023-07-02T06:10:17;31.69;39.36
75489;HTU21D;64069;46.396;48.102;2023-07-02T06:12:51;31.58;39.42
75489;HTU21D;64069;46.396;48.102;2023-07-02T06:15:17;31.53;39.21
75489;HTU21D;64069;46.396;48.102;2023-07-02T06:17:49;31.72;38.69
75489;HTU21D;64069;46.396;48.102;2023-07-02T06:20:21;31.86;38.08
75489;HTU21D;64069;46.396;48.102;2023-07-02T06:22:47;31.72;38.35
75489;HTU21D;64069;46.396;48.102;2023-07-02T06:25:19;31.81;38.59
75489;HTU21D;64069;46.396;48.102;2023-07-02T06:27:52;32.15;37.98
75489;HTU21D;64069;46.396;48.102;2023-07-02T06:30:33;32.25;37.90
75489;HTU21D;64069;46.396;48.102;2023-07-02T06:33:06;32.38;37.47
75489;HTU21D;64069;46.396;48.102;2023-07-02T06:35:38;32.04;37.59
75489;HTU21D;64069;46.396;48.102;2023-07-02T06:38:04;31.92;37.75
75489;HTU21D;64069;46.396;48.102;2023-07-02T06:40:36;31.83;38.04
75489;HTU21D;64069;46.396;48.102;2023-07-02T06:43:08;31.95;37.79
75489;HTU21D;64069;46.396;48.102;2023-07-02T06:45:47;32.00;37.95
75489;HTU21D;64069;46.396;48.102;2023-07-02T06:48:19;31.85;37.70
75489;HTU21D;64069;46.396;48.102;2023-07-02T06:50:47;31.67;37.93
75489;HTU21D;64069;46.396;48.102;2023-07-02T06:53:19;31.74;37.82
75489;HTU21D;64069;46.396;48.102;2023-07-02T06:55:45;31.99;37.23
75489;HTU21D;64069;46.396;48.102;2023-07-02T06:58:17;32.08;36.98
75489;HTU21D;64069;46.396;48.102;2023-07-02T07:00:50;32.00;36.87
75489;HTU21D;64069;46.396;48.102;2023-07-02T07:03:16;31.71;37.38
75489;HTU21D;64069;46.396;48.102;2023-07-02T07:05:48;31.85;37.23
75489;HTU21D;64069;46.396;48.102;2023-07-02T07:08:20;31.84;37.00
75489;HTU21D;64069;46.396;48.102;2023-07-02T07:10:46;31.65;37.27
75489;HTU21D;64069;46.396;48.102;2023-07-02T07:13:19;31.63;37.33
75489;HTU21D;64069;46.396;48.102;2023-07-02T07:15:52;31.27;37.85
75489;HTU21D;64069;46.396;48.102;2023-07-02T07:18:18;31.04;38.01
75489;HTU21D;64069;46.396;48.102;2023-07-02T07:20:50;30.80;38.36
75489;HTU21D;64069;46.396;48.102;2023-07-02T07:23:25;30.99;38.01
75489;HTU21D;64069;46.396;48.102;2023-07-02T07:25:50;31.24;37.37
75489;HTU21D;64069;46.396;48.102;2023-07-02T07:28:22;31.34;37.11
75489;HTU21D;64069;46.396;48.102;2023-07-02T07:30:55;31.65;36.33
75489;HTU21D;64069;46.396;48.102;2023-07-02T07:33:21;31.75;35.89
75489;HTU21D;64069;46.396;48.102;2023-07-02T07:35:54;31.49;36.35
75489;HTU21D;64069;46.396;48.102;2023-07-02T07:38:20;31.43;36.30
75489;HTU21D;64069;46.396;48.102;2023-07-02T07:40:52;31.71;35.90
75489;HTU21D;64069;46.396;48.102;2023-07-02T07:43:31;32.14;35.45
75489;HTU21D;64069;46.396;48.102;2023-07-02T07:46:04;32.35;35.17
75489;HTU21D;64069;46.396;48.102;2023-07-02T07:48:29;31.99;35.11
75489;HTU21D;64069;46.396;48.102;2023-07-02T07:51:01;31.86;35.43
75489;HTU21D;64069;46.396;48.102;2023-07-02T07:53:37;31.95;35.16
75489;HTU21D;64069;46.396;48.102;2023-07-02T07:56:05;31.73;35.35
75489;HTU21D;64069;46.396;48.102;2023-07-02T07:58:38;31.92;35.17
75489;HTU21D;64069;46.396;48.102;2023-07-02T08:01:03;32.26;34.79
75489;HTU21D;64069;46.396;48.102;2023-07-02T08:03:39;32.63;34.34
75489;HTU21D;64069;46.396;48.102;2023-07-02T08:06:12;32.78;33.47
75489;HTU21D;64069;46.396;48.102;2023-07-02T08:08:37;32.38;33.90
75489;HTU21D;64069;46.396;48.102;2023-07-02T08:11:10;32.04;34.50
75489;HTU21D;64069;46.396;48.102;2023-07-02T08:13:36;32.29;34.15
75489;HTU21D;64069;46.396;48.102;2023-07-02T08:16:07;32.53;33.51
75489;HTU21D;64069;46.396;48.102;2023-07-02T08:18:42;32.53;33.36
75489;HTU21D;64069;46.396;48.102;2023-07-02T08:21:08;32.41;33.57
75489;HTU21D;64069;46.396;48.102;2023-07-02T08:23:42;32.24;33.55
75489;HTU21D;64069;46.396;48.102;2023-07-02T08:26:16;32.34;33.67
75489;HTU21D;64069;46.396;48.102;2023-07-02T08:28:41;32.55;33.30
75489;HTU21D;64069;46.396;48.102;2023-07-02T08:31:14;32.71;32.71
75489;HTU21D;64069;46.396;48.102;2023-07-02T08:33:40;32.83;32.70
75489;HTU21D;64069;46.396;48.102;2023-07-02T08:36:13;33.02;32.40
75489;HTU21D;64069;46.396;48.102;2023-07-02T08:38:49;32.90;32.17
75489;HTU21D;64069;46.396;48.102;2023-07-02T08:41:15;32.90;32.31
75489;HTU21D;64069;46.396;48.102;2023-07-02T08:43:48;33.18;32.13
75489;HTU21D;64069;46.396;48.102;2023-07-02T08:46:24;33.15;31.78
75489;HTU21D;64069;46.396;48.102;2023-07-02T08:48:56;33.07;31.89
75489;HTU21D;64069;46.396;48.102;2023-07-02T08:51:22;33.31;31.64
75489;HTU21D;64069;46.396;48.102;2023-07-02T08:53:54;33.41;31.57
75489;HTU21D;64069;46.396;48.102;2023-07-02T08:56:27;33.34;31.51
75489;HTU21D;64069;46.396;48.102;2023-07-02T08:58:53;33.28;31.38
75489;HTU21D;64069;46.396;48.102;2023-07-02T09:01:25;33.46;31.42
75489;HTU21D;64069;46.396;48.102;2023-07-02T09:03:51;33.63;30.87
75489;HTU21D;64069;46.396;48.102;2023-07-02T09:06:23;33.57;30.74
75489;HTU21D;64069;46.396;48.102;2023-07-02T09:09:05;33.35;31.00
75489;HTU21D;64069;46.396;48.102;2023-07-02T09:11:49;33.56;30.95
75489;HTU21D;64069;46.396;48.102;2023-07-02T09:14:30;33.58;30.95
75489;HTU21D;64069;46.396;48.102;2023-07-02T09:17:08;33.45;31.34
75489;HTU21D;64069;46.396;48.102;2023-07-02T09:19:51;33.18;31.50
75489;HTU21D;64069;46.396;48.102;2023-07-02T09:22:24;33.09;31.69
75489;HTU21D;64069;46.396;48.102;2023-07-02T09:24:54;33.42;31.22
75489;HTU21D;64069;46.396;48.102;2023-07-02T09:27:53;33.62;31.06
75489;HTU21D;64069;46.396;48.102;2023-07-02T09:30:25;33.51;30.71
75489;HTU21D;64069;46.396;48.102;2023-07-02T09:33:06;33.66;30.68
75489;HTU21D;64069;46.396;48.102;2023-07-02T09:35:40;33.76;30.28
75489;HTU21D;64069;46.396;48.102;2023-07-02T09:38:14;33.64;30.62
75489;HTU21D;64069;46.396;48.102;2023-07-02T09:40:52;33.45;31.17
75489;HTU21D;64069;46.396;48.102;2023-07-02T09:43:26;33.14;31.29
75489;HTU21D;64069;46.396;48.102;2023-07-02T09:45:59;32.82;31.45
75489;HTU21D;64069;46.396;48.102;2023-07-02T09:48:40;32.61;31.90
75489;HTU21D;64069;46.396;48.102;2023-07-02T09:51:06;32.50;32.15
75489;HTU21D;64069;46.396;48.102;2023-07-02T09:53:38;32.40;32.17
75489;HTU21D;64069;46.396;48.102;2023-07-02T09:56:11;32.58;31.90
75489;HTU21D;64069;46.396;48.102;2023-07-02T09:58:44;32.58;32.17
75489;HTU21D;64069;46.396;48.102;2023-07-02T10:01:10;32.43;32.40
75489;HTU21D;64069;46.396;48.102;2023-07-02T10:03:43;32.07;32.54
75489;HTU21D;64069;46.396;48.102;2023-07-02T10:06:09;31.86;32.93
75489;HTU21D;64069;46.396;48.102;2023-07-02T10:08:41;32.15;32.78
75489;HTU21D;64069;46.396;48.102;2023-07-02T10:11:33;32.79;31.86
75489;HTU21D;64069;46.396;48.102;2023-07-02T10:14:07;33.29;31.23
75489;HTU21D;64069;46.396;48.102;2023-07-02T10:16:54;33.65;30.52
75489;HTU21D;64069;46.396;48.102;2023-07-02T10:19:27;33.65;30.66
75489;HTU21D;64069;46.396;48.102;2023-07-02T10:22:03;33.82;30.78
75489;HTU21D;64069;46.396;48.102;2023-07-02T10:24:36;33.89;29.89
75489;HTU21D;64069;46.396;48.102;2023-07-02T10:27:08;33.94;29.81
75489;HTU21D;64069;46.396;48.102;2023-07-02T10:29:49;33.92;29.61
75489;HTU21D;64069;46.396;48.102;2023-07-02T10:32:28;34.08;29.24
75489;HTU21D;64069;46.396;48.102;2023-07-02T10:35:12;34.34;28.41
75489;HTU21D;64069;46.396;48.102;2023-07-02T10:37:45;34.45;28.00
75489;HTU21D;64069;46.396;48.102;2023-07-02T10:40:12;34.35;28.10
75489;HTU21D;64069;46.396;48.102;2023-07-02T10:42:52;34.32;27.90
75489;HTU21D;64069;46.396;48.102;2023-07-02T10:45:33;34.15;28.01
75489;HTU21D;64069;46.396;48.102;2023-07-02T10:48:09;33.97;28.12
75489;HTU21D;64069;46.396;48.102;2023-07-02T10:50:35;33.89;28.63
75489;HTU21D;64069;46.396;48.102;2023-07-02T10:53:15;34.09;28.53
75489;HTU21D;64069;46.396;48.102;2023-07-02T10:55:55;34.36;27.96
75489;HTU21D;64069;46.396;48.102;2023-07-02T10:58:28;34.29;27.72
75489;HTU21D;64069;46.396;48.102;2023-07-02T11:00:53;33.95;27.92
75489;HTU21D;64069;46.396;48.102;2023-07-02T11:03:26;33.65;28.31
75489;HTU21D;64069;46.396;48.102;2023-07-02T11:05:59;33.60;28.32
75489;HTU21D;64069;46.396;48.102;2023-07-02T11:08:34;33.42;28.65
75489;HTU21D;64069;46.396;48.102;2023-07-02T11:11:07;33.42;28.96
75489;HTU21D;64069;46.396;48.102;2023-07-02T11:13:47;33.79;28.10
75489;HTU21D;64069;46.396;48.102;2023-07-02T11:16:26;33.99;27.62
75489;HTU21D;64069;46.396;48.102;2023-07-02T11:19:08;34.16;27.22
75489;HTU21D;64069;46.396;48.102;2023-07-02T11:21:54;34.19;27.43
75489;HTU21D;64069;46.396;48.102;2023-07-02T11:24:34;34.24;27.88
75489;HTU21D;64069;46.396;48.102;2023-07-02T11:27:06;34.17;27.62
75489;HTU21D;64069;46.396;48.102;2023-07-02T11:29:34;34.06;27.17
75489;HTU21D;64069;46.396;48.102;2023-07-02T11:34:39;33.72;27.56
75489;HTU21D;64069;46.396;48.102;2023-07-02T11:37:13;33.68;27.78
75489;HTU21D;64069;46.396;48.102;2023-07-02T11:39:45;33.64;27.92
75489;HTU21D;64069;46.396;48.102;2023-07-02T11:42:11;33.53;28.18
75489;HTU21D;64069;46.396;48.102;2023-07-02T11:44:43;33.47;28.39
75489;HTU21D;64069;46.396;48.102;2023-07-02T11:47:23;33.37;28.50
75489;HTU21D;64069;46.396;48.102;2023-07-02T11:49:50;33.38;28.20
75489;HTU21D;64069;46.396;48.102;2023-07-02T11:52:23;33.45;28.09
75489;HTU21D;64069;46.396;48.102;2023-07-02T11:54:55;33.61;28.22
75489;HTU21D;64069;46.396;48.102;2023-07-02T11:57:21;33.73;27.97
75489;HTU21D;64069;46.396;48.102;2023-07-02T11:59:56;33.90;27.65
75489;HTU21D;64069;46.396;48.102;2023-07-02T12:02:28;34.14;27.38
75489;HTU21D;64069;46.396;48.102;2023-07-02T12:05:00;34.16;27.29
75489;HTU21D;64069;46.396;48.102;2023-07-02T12:07:32;33.97;27.08
75489;HTU21D;64069;46.396;48.102;2023-07-02T12:09:58;33.67;27.17
75489;HTU21D;64069;46.396;48.102;2023-07-02T12:12:30;33.52;27.49
75489;HTU21D;64069;46.396;48.102;2023-07-02T12:14:55;33.38;27.56
75489;HTU21D;64069;46.396;48.102;2023-07-02T12:17:28;33.20;27.64
75489;HTU21D;64069;46.396;48.102;2023-07-02T12:20:00;33.08;27.81
75489;HTU21D;64069;46.396;48.102;2023-07-02T12:22:32;32.89;28.10
75489;HTU21D;64069;46.396;48.102;2023-07-02T12:24:58;32.68;28.10
75489;HTU21D;64069;46.396;48.102;2023-07-02T12:27:30;32.47;28.47
75489;HTU21D;64069;46.396;48.102;2023-07-02T12:30:02;32.37;28.75
75489;HTU21D;64069;46.396;48.102;2023-07-02T12:32:35;32.25;28.86
75489;HTU21D;64069;46.396;48.102;2023-07-02T12:35:01;32.20;28.77
75489;HTU21D;64069;46.396;48.102;2023-07-02T12:37:35;32.17;28.84
75489;HTU21D;64069;46.396;48.102;2023-07-02T12:40:00;32.22;28.98
75489;HTU21D;64069;46.396;48.102;2023-07-02T12:42:33;32.30;29.13
75489;HTU21D;64069;46.396;48.102;2023-07-02T12:45:13;32.37;29.21
75489;HTU21D;64069;46.396;48.102;2023-07-02T12:47:46;32.43;29.58
75489;HTU21D;64069;46.396;48.102;2023-07-02T12:50:19;32.43;29.41
75489;HTU21D;64069;46.396;48.102;2023-07-02T12:52:45;32.30;29.45
75489;HTU21D;64069;46.396;48.102;2023-07-02T12:55:17;32.26;29.64
75489;HTU21D;64069;46.396;48.102;2023-07-02T12:57:49;32.28;29.79
75489;HTU21D;64069;46.396;48.102;2023-07-02T13:00:34;32.44;29.89
75489;HTU21D;64069;46.396;48.102;2023-07-02T13:03:10;32.56;29.72
75489;HTU21D;64069;46.396;48.102;2023-07-02T13:05:43;32.55;29.68
75489;HTU21D;64069;46.396;48.102;2023-07-02T13:08:09;32.48;29.42
75489;HTU21D;64069;46.396;48.102;2023-07-02T13:10:42;32.33;29.49
75489;HTU21D;64069;46.396;48.102;2023-07-02T13:13:15;32.35;29.46
75489;HTU21D;64069;46.396;48.102;2023-07-02T13:15:41;32.44;29.34
75489;HTU21D;64069;46.396;48.102;2023-07-02T13:18:14;32.67;28.81
75489;HTU21D;64069;46.396;48.102;2023-07-02T13:20:46;32.84;28.43
75489;HTU21D;64069;46.396;48.102;2023-07-02T13:23:12;32.93;28.16
75489;HTU21D;64069;46.396;48.102;2023-07-02T13:25:44;32.99;28.29
75489;HTU21D;64069;46.396;48.102;2023-07-02T13:28:10;33.11;28.45
75489;HTU21D;64069;46.396;48.102;2023-07-02T13:30:44;33.16;28.19
75489;HTU21D;64069;46.396;48.102;2023-07-02T13:33:10;33.12;27.75
75489;HTU21D;64069;46.396;48.102;2023-07-02T13:35:43;32.96;27.97
75489;HTU21D;64069;46.396;48.102;2023-07-02T13:38:16;32.86;28.09
75489;HTU21D;64069;46.396;48.102;2023-07-02T13:40:41;32.88;27.97
75489;HTU21D;64069;46.396;48.102;2023-07-02T13:43:15;32.89;27.71
75489;HTU21D;64069;46.396;48.102;2023-07-02T13:45:41;32.76;27.83
75489;HTU21D;64069;46.396;48.102;2023-07-02T13:48:14;32.77;28.00
75489;HTU21D;64069;46.396;48.102;2023-07-02T13:50:46;32.91;27.97
75489;HTU21D;64069;46.396;48.102;2023-07-02T13:53:18;33.11;27.56
75489;HTU21D;64069;46.396;48.102;2023-07-02T13:55:50;33.30;27.09
75489;HTU21D;64069;46.396;48.102;2023-07-02T13:58:22;33.46;27.03
75489;HTU21D;64069;46.396;48.102;2023-07-02T14:01:09;33.55;26.90
75489;HTU21D;64069;46.396;48.102;2023-07-02T14:03:42;33.53;26.81
75489;HTU21D;64069;46.396;48.102;2023-07-02T14:06:08;33.50;26.48
75489;HTU21D;64069;46.396;48.102;2023-07-02T14:08:41;33.43;26.27
75489;HTU21D;64069;46.396;48.102;2023-07-02T14:11:14;33.29;26.13
75489;HTU21D;64069;46.396;48.102;2023-07-02T14:13:40;33.09;26.07
75489;HTU21D;64069;46.396;48.102;2023-07-02T14:16:12;32.83;26.58
75489;HTU21D;64069;46.396;48.102;2023-07-02T14:18:44;32.67;26.89
75489;HTU21D;64069;46.396;48.102;2023-07-02T14:21:17;32.58;27.18
75489;HTU21D;64069;46.396;48.102;2023-07-02T14:23:43;32.59;27.33
75489;HTU21D;64069;46.396;48.102;2023-07-02T14:26:16;32.64;27.33
75489;HTU21D;64069;46.396;48.102;2023-07-02T14:28:42;32.73;27.05
75489;HTU21D;64069;46.396;48.102;2023-07-02T14:31:14;32.86;27.04
75489;HTU21D;64069;46.396;48.102;2023-07-02T14:33:46;32.91;26.82
75489;HTU21D;64069;46.396;48.102;2023-07-02T14:36:12;32.87;26.93
75489;HTU21D;64069;46.396;48.102;2023-07-02T14:38:45;32.82;27.12
75489;HTU21D;64069;46.396;48.102;2023-07-02T14:41:19;32.75;27.33
75489;HTU21D;64069;46.396;48.102;2023-07-02T14:43:45;32.68;27.28
75489;HTU21D;64069;46.396;48.102;2023-07-02T14:46:17;32.68;27.23
75489;HTU21D;64069;46.396;48.102;2023-07-02T14:48:50;32.75;26.79
75489;HTU21D;64069;46.396;48.102;2023-07-02T14:51:16;32.77;26.46
75489;HTU21D;64069;46.396;48.102;2023-07-02T14:53:50;32.77;26.25
75489;HTU21D;64069;46.396;48.102;2023-07-02T14:56:22;32.64;26.32
75489;HTU21D;64069;46.396;48.102;2023-07-02T14:58:48;32.46;26.61
75489;HTU21D;64069;46.396;48.102;2023-07-02T15:01:35;32.28;26.86
75489;HTU21D;64069;46.396;48.102;2023-07-02T15:04:08;32.18;27.00
75489;HTU21D;64069;46.396;48.102;2023-07-02T15:06:34;32.16;27.14
75489;HTU21D;64069;46.396;48.102;2023-07-02T15:09:07;32.12;27.23
75489;HTU21D;64069;46.396;48.102;2023-07-02T15:11:39;32.05;27.29
75489;HTU21D;64069;46.396;48.102;2023-07-02T15:14:12;32.03;27.24
75489;HTU21D;64069;46.396;48.102;2023-07-02T15:16:38;32.00;27.37
75489;HTU21D;64069;46.396;48.102;2023-07-02T15:19:10;31.99;27.57
75489;HTU21D;64069;46.396;48.102;2023-07-02T15:21:44;31.92;27.87
75489;HTU21D;64069;46.396;48.102;2023-07-02T15:24:10;31.82;28.10
75489;HTU21D;64069;46.396;48.102;2023-07-02T15:26:45;31.73;28.13
75489;HTU21D;64069;46.396;48.102;2023-07-02T15:29:18;31.65;28.28
75489;HTU21D;64069;46.396;48.102;2023-07-02T15:31:44;31.55;28.24